Historyczne dane pomiarowe

Dodano dane terminowe – wersja testowa.

Dane z okresu 1951-2019

Wersja bazy: 1.34 [2019-03-16, lista zmian], aktualizacja planowana na 2019-04-15

Dane meteo z obszaru Polski uzyskane na podstawie danych udostępnionych przez Instytut Meteorologii i Gospodarki Wodnej – Państwowy Instytut Badawczy.

 

Wybierz Datę:    

       

TemperaturaWilgotnośćWiatrCiśnienieOpadyŚniegCzas trwania zjawisk
 Stacja t tx tn tng RH VA  wxwx mslp ppp RRR   cm mm wxwxwxwxwxwxwx
1987-08-14 15.2 22.1 8.2 7.0-- 3.3 2.0---- 3.3------------
1987-08-13 12.0 15.5 6.0 4.0-- 4.7 2.0---- 0.0------------
1987-08-12 12.2 17.0 7.4 6.0-- 3.3 2.0---- 0.0------------
1987-08-11 13.4 17.0 11.6 10.5-- 5.0 3.3---- 2.2------------
1987-08-10 13.7 17.5 12.8 13.5-- 7.7 4.0---- 7.2------------
1987-08-09 17.7 24.1 12.2 8.7-- 2.3 0.3---- 1.9------------
1987-08-08 13.7 18.2 10.5 8.8-- 1.7 0.0---- 0.0------------
1987-08-07 12.5 18.5 7.5 6.1-- 3.3 2.3---- 2.0------------
1987-08-06 11.7 17.1 7.2 5.2-- 5.0 3.7---- 0.0------------
1987-08-05 12.3 18.5 6.6 5.0-- 3.0 3.0---- 0.0------------
1987-08-04 14.3 17.7 10.3 8.8-- 5.3 0.7---- 5.1------------
1987-08-03 14.2 18.6 9.9 8.8-- 2.3 5.3---- 0.0------------
1987-08-02 15.0 18.5 12.5 11.6-- 3.0 4.3---- 1.3------------
1987-08-01 15.7 21.5 9.4 7.6-- 6.0 1.7---- 0.3------------
1987-07-31 15.8 19.4 14.2 13.8-- 7.3 0.7---- 7.4------------
1987-07-30 17.6 24.0 12.2 10.0-- 2.7 0.0---- 0.8------------
1987-07-29 13.0 19.5 9.5 9.0-- 6.0 2.7---- 0.0------------
1987-07-28 13.6 17.0 12.0 10.5-- 8.0 3.3---- 6.5------------
1987-07-27 11.5 16.9 7.6 6.4-- 5.3 3.0---- 1.2------------
1987-07-26 13.8 19.5 11.3 13.0-- 6.7 0.3---- 7.4------------
1987-07-25 19.1 22.8 15.8 14.1-- 6.0 0.0---- 1.4------------
1987-07-24 19.7 26.5 14.2 14.5-- 6.0 1.3---- 0.0------------
1987-07-23 19.0 27.1 11.8 11.8-- 0.0 0.0---- 0.0------------
1987-07-22 19.1 23.1 16.5 15.5-- 3.3 0.3---- 0.2------------
1987-07-21 18.3 24.3 10.0 9.0-- 1.3 0.0---- 1.1------------
1987-07-20 19.3 22.0 17.5 17.9-- 3.7 3.3---- 0.0------------
1987-07-19 20.2 27.0 16.0 15.8-- 5.7 2.0---- 15.3------------
1987-07-18 21.3 26.0 17.4 17.0-- 0.0 2.7---- 1.4------------
1987-07-17 19.3 25.2 14.5 12.9-- 5.0 3.7---- 1.3------------
1987-07-16 17.5 26.3 7.3 6.9-- 1.3 2.0---- 0.0------------
1987-07-15 15.8 22.9 6.0 4.7-- 1.3 0.0---- 0.0------------
1987-07-14 14.8 19.1 7.2 5.0-- 2.0 2.0---- 0.0------------
1987-07-13 16.8 21.5 10.6 8.9-- 1.7 3.3---- 0.0------------
1987-07-12 20.2 27.6 13.0 11.6-- 3.0 1.7---- 0.7------------
1987-07-11 14.9 21.5 7.4 6.1-- 2.7 1.7---- 0.0------------
1987-07-10 13.9 17.5 9.5 8.5-- 1.3 3.3---- 0.0------------
1987-07-09 16.8 24.0 13.1 15.0-- 8.0 1.0---- 11.4------------
1987-07-08 21.5 29.0 11.7 10.6-- 1.0 2.3---- 0.0------------
1987-07-07 19.1 26.5 9.0 7.5-- 0.0 2.7---- 0.0------------
1987-07-06 17.1 23.2 7.2 6.2-- 0.0 0.7---- 0.0------------
1987-07-05 16.4 20.5 12.7 12.1-- 4.0 1.3---- 0.0------------
1987-07-04 16.5 22.2 12.7 10.7-- 2.7 0.0---- 1.7------------
1987-07-03 19.0 23.4 15.1 14.5-- 0.7 0.0---- 0.0------------
1987-07-02 18.5 25.4 16.0 17.4-- 7.0 1.3---- 2.5------------
1987-07-01 24.2 30.0 17.1 16.6-- 0.0 0.7---- 0.0------------
1987-06-30 23.4 29.5 16.0 13.6-- 0.3 0.3---- 0.0------------
1987-06-29 19.2 25.0 12.5 10.6-- 1.7 1.3---- 0.0------------
1987-06-28 17.8 24.2 10.5 9.0-- 4.0 2.0---- 0.3------------
1987-06-27 17.3 21.0 14.5 13.0-- 6.3 1.0---- 0.8------------
1987-06-26 16.1 23.0 8.0 6.1-- 1.0 1.3---- 4.6------------
1987-06-25 13.5 17.0 12.2 11.1-- 3.7 2.3---- 0.6------------
1987-06-24 15.5 20.5 11.0 8.8-- 2.7 2.0---- 7.7------------
1987-06-23 15.4 18.7 13.9 13.5-- 3.7 2.0---- 0.0------------
1987-06-22 17.0 23.9 9.0 7.2-- 2.3 1.7---- 0.0------------
1987-06-21 17.1 23.5 7.5 5.1-- 0.3 0.7---- 0.0------------
1987-06-20 15.0 21.2 5.9 3.5-- 4.7 1.7---- 0.0------------
1987-06-19 12.2 16.5 5.4 2.5-- 5.0 2.0---- 1.2------------
1987-06-18 11.3 16.5 4.6 1.9-- 2.0 0.3---- 1.7------------
1987-06-17 10.9 14.3 8.6 6.5-- 4.7 2.3---- 0.0------------
1987-06-16 13.8 25.7 11.5 11.5-- 8.0 4.7---- 6.8------------
844.5 ms

 

Źródłem pochodzenia danych jest Instytut Meteorologii i Gospodarki Wodnej – Państwowy Instytut Badawczy. Dane Instytutu Meteorologii i Gospodarki Wodnej – Państwowego Instytutu Badawczego zostały przetworzone.

Dane źródłowe można odnaleźć na stronie https://dane.imgw.pl